createdAt,value
2018-05-04T00:01:19.213Z,50.40
2018-05-04T00:03:45.455Z,50.40
2018-05-04T00:06:11.652Z,50.40
2018-05-04T00:08:37.848Z,50.40
2018-05-04T00:11:04.103Z,50.50
2018-05-04T00:13:30.303Z,50.50
2018-05-04T00:15:56.512Z,50.40
2018-05-04T00:18:29.739Z,50.60
2018-05-04T00:20:55.942Z,51.40
2018-05-04T00:23:22.152Z,50.80
2018-05-04T00:25:48.384Z,50.70
2018-05-04T00:28:14.547Z,50.90
2018-05-04T00:30:40.724Z,50.80
2018-05-04T00:33:07.630Z,51.00
2018-05-04T00:35:33.794Z,51.00
2018-05-04T00:38:00.793Z,51.80
2018-05-04T00:40:26.959Z,51.80
2018-05-04T00:42:53.954Z,52.40
2018-05-04T00:45:20.112Z,52.40
2018-05-04T00:47:46.304Z,53.10
2018-05-04T00:50:12.468Z,53.70
2018-05-04T00:52:38.663Z,53.10
2018-05-04T00:55:04.891Z,52.90
2018-05-04T00:57:31.093Z,52.90
2018-05-04T00:59:57.339Z,52.80
2018-05-04T01:02:23.516Z,52.70
2018-05-04T01:04:50.444Z,52.80
2018-05-04T01:07:16.607Z,52.70
2018-05-04T01:09:42.792Z,52.60
2018-05-04T01:12:08.952Z,52.50
2018-05-04T01:14:35.152Z,52.50
2018-05-04T01:17:08.266Z,52.50
2018-05-04T01:19:42.186Z,52.40
2018-05-04T01:22:09.098Z,52.30
2018-05-04T01:24:35.267Z,52.30
2018-05-04T01:27:01.555Z,52.50
2018-05-04T01:29:28.587Z,53.30
2018-05-04T01:31:54.753Z,54.10
2018-05-04T01:34:20.946Z,54.00
2018-05-04T01:36:47.131Z,54.00
2018-05-04T01:39:13.281Z,54.10
2018-05-04T01:41:39.446Z,54.10
2018-05-04T01:44:05.619Z,54.00
2018-05-04T01:46:31.792Z,54.70
2018-05-04T01:48:57.973Z,54.20
2018-05-04T01:51:24.148Z,54.10
2018-05-04T01:53:50.308Z,54.10
2018-05-04T01:56:16.479Z,54.10
2018-05-04T01:58:49.638Z,54.20
2018-05-04T02:01:15.811Z,54.40
2018-05-04T02:03:41.979Z,54.30
2018-05-04T02:06:08.166Z,54.50
2018-05-04T02:08:35.089Z,54.60
2018-05-04T02:11:01.282Z,54.60
2018-05-04T02:13:27.477Z,54.70
2018-05-04T02:15:53.646Z,54.80
2018-05-04T02:18:19.822Z,54.80
2018-05-04T02:20:46.748Z,55.00
2018-05-04T02:23:12.912Z,55.00
2018-05-04T02:25:39.834Z,55.20
2018-05-04T02:28:06.024Z,55.30
2018-05-04T02:30:32.206Z,55.30
2018-05-04T02:32:59.970Z,55.20
2018-05-04T02:35:26.996Z,55.40
2018-05-04T02:37:53.208Z,55.40
2018-05-04T02:40:19.400Z,55.30
2018-05-04T02:42:45.573Z,55.50
2018-05-04T02:45:11.749Z,55.60
2018-05-04T02:47:37.923Z,55.80
2018-05-04T02:50:04.105Z,55.80
2018-05-04T02:52:30.260Z,55.80
2018-05-04T02:54:56.448Z,55.90
2018-05-04T02:57:22.605Z,56.10
2018-05-04T02:59:48.766Z,56.50
2018-05-04T03:02:14.949Z,56.50
2018-05-04T03:04:41.112Z,56.60
2018-05-04T03:07:07.295Z,56.50
2018-05-04T03:09:33.476Z,56.40
2018-05-04T03:11:59.636Z,56.30
2018-05-04T03:14:25.797Z,56.20
2018-05-04T03:16:52.013Z,56.40
2018-05-04T03:19:18.180Z,56.40
2018-05-04T03:21:44.339Z,56.50
2018-05-04T03:24:11.246Z,56.70
2018-05-04T03:26:37.427Z,56.70
2018-05-04T03:29:03.600Z,56.80
2018-05-04T03:31:29.780Z,56.70
2018-05-04T03:33:55.947Z,56.90
2018-05-04T03:36:22.157Z,57.00
2018-05-04T03:38:49.146Z,57.00
2018-05-04T03:41:16.048Z,57.00
2018-05-04T03:43:42.236Z,56.90
2018-05-04T03:46:08.424Z,56.80
2018-05-04T03:48:34.579Z,56.70
2018-05-04T03:51:01.473Z,56.70
2018-05-04T03:53:27.651Z,56.60
2018-05-04T03:55:53.839Z,56.80
2018-05-04T03:58:32.371Z,56.80
2018-05-04T04:01:11.677Z,57.00
2018-05-04T04:03:50.125Z,57.10
2018-05-04T04:06:16.313Z,57.40
2018-05-04T04:08:42.488Z,57.50
2018-05-04T04:11:16.344Z,58.00
2018-05-04T04:13:42.511Z,58.00
2018-05-04T04:16:09.421Z,58.10
2018-05-04T04:18:35.596Z,58.10
2018-05-04T04:21:02.513Z,58.20
2018-05-04T04:23:28.677Z,58.30
2018-05-04T04:25:54.916Z,58.30
2018-05-04T04:28:21.083Z,58.20
2018-05-04T04:30:47.262Z,58.40
2018-05-04T04:33:13.435Z,58.60
2018-05-04T04:35:39.653Z,58.70
2018-05-04T04:38:05.876Z,59.10
2018-05-04T04:40:32.056Z,59.00
2018-05-04T04:42:58.966Z,59.40
2018-05-04T04:45:25.162Z,59.40
2018-05-04T04:47:51.366Z,59.20
2018-05-04T04:50:17.533Z,60.10
2018-05-04T04:52:43.717Z,59.60
2018-05-04T04:55:09.921Z,59.70
2018-05-04T04:57:36.091Z,59.70
2018-05-04T05:00:02.288Z,60.30
2018-05-04T05:02:28.475Z,60.00
2018-05-04T05:04:54.647Z,60.00
2018-05-04T05:07:20.859Z,60.00
2018-05-04T05:09:47.756Z,60.70
2018-05-04T05:12:13.924Z,60.60
2018-05-04T05:14:40.101Z,60.60
2018-05-04T05:17:06.296Z,60.50
2018-05-04T05:19:32.475Z,60.70
2018-05-04T05:21:58.663Z,60.50
2018-05-04T05:24:24.841Z,60.70
2018-05-04T05:26:58.755Z,60.80
2018-05-04T05:29:24.947Z,60.80
2018-05-04T05:31:51.124Z,60.80
2018-05-04T05:34:18.093Z,61.30
2018-05-04T05:36:44.260Z,61.20
2018-05-04T05:39:11.208Z,61.40
2018-05-04T05:41:37.385Z,61.40
2018-05-04T05:44:04.297Z,64.30
2018-05-04T05:46:30.487Z,64.30
2018-05-04T05:48:56.668Z,64.50
2018-05-04T05:51:23.649Z,65.90
2018-05-04T05:53:49.815Z,65.80
2018-05-04T05:56:16.740Z,65.90
2018-05-04T05:58:42.912Z,65.80
2018-05-04T06:01:09.831Z,65.00
2018-05-04T06:03:36.013Z,64.90
2018-05-04T06:06:02.201Z,63.90
2018-05-04T06:08:29.121Z,62.30
2018-05-04T06:10:55.299Z,62.10
2018-05-04T06:13:21.487Z,60.90
2018-05-04T06:15:47.680Z,60.20
2018-05-04T06:18:13.886Z,59.00
2018-05-04T06:20:40.068Z,58.60
2018-05-04T06:23:06.258Z,58.70
2018-05-04T06:25:32.456Z,57.80
2018-05-04T06:27:58.654Z,57.00
2018-05-04T06:30:25.575Z,55.10
2018-05-04T06:32:51.779Z,55.10
2018-05-04T06:35:17.963Z,54.50
2018-05-04T06:37:44.891Z,54.90
2018-05-04T06:40:11.071Z,54.90
2018-05-04T06:42:37.255Z,55.50
2018-05-04T06:45:03.451Z,55.80
2018-05-04T06:47:29.647Z,55.90
2018-05-04T06:49:55.848Z,56.10
2018-05-04T06:52:22.016Z,55.70
2018-05-04T06:54:48.216Z,55.20
2018-05-04T06:57:14.403Z,54.50
2018-05-04T06:59:40.677Z,53.00
2018-05-04T07:02:06.900Z,52.70
2018-05-04T07:04:33.087Z,51.70
2018-05-04T07:06:59.868Z,51.50
2018-05-04T07:09:26.096Z,52.10
2018-05-04T07:11:52.276Z,52.10
2018-05-04T07:14:19.962Z,51.40
2018-05-04T07:16:46.911Z,50.40
2018-05-04T07:19:13.836Z,50.60
2018-05-04T07:21:40.043Z,50.50
2018-05-04T07:24:06.235Z,50.40
2018-05-04T07:26:32.452Z,49.70
2018-05-04T07:28:58.687Z,49.40
2018-05-04T07:31:24.886Z,50.10
2018-05-04T07:33:51.820Z,50.50
2018-05-04T07:36:18.012Z,50.30
2018-05-04T07:38:44.199Z,50.60
2018-05-04T07:41:10.380Z,50.80
2018-05-04T07:43:36.588Z,50.90
2018-05-04T07:46:02.776Z,50.30
2018-05-04T07:48:29.708Z,51.00
2018-05-04T07:50:55.907Z,50.90
2018-05-04T07:53:22.140Z,51.30
2018-05-04T07:55:55.380Z,51.50
2018-05-04T07:58:21.585Z,51.90
2018-05-04T08:00:48.524Z,51.20
2018-05-04T08:03:14.700Z,51.10
2018-05-04T08:05:40.916Z,51.90
2018-05-04T08:08:07.110Z,50.80
2018-05-04T08:10:34.020Z,50.30
2018-05-04T08:13:00.236Z,50.60
2018-05-04T08:15:26.430Z,50.80
2018-05-04T08:17:52.661Z,50.30
2018-05-04T08:20:18.882Z,50.40
2018-05-04T08:22:45.069Z,50.40
2018-05-04T08:25:11.425Z,49.90
2018-05-04T08:27:37.588Z,50.10
2018-05-04T08:30:03.780Z,49.10
2018-05-04T08:32:29.984Z,49.30
2018-05-04T08:34:56.180Z,49.30
2018-05-04T08:37:22.352Z,49.60
2018-05-04T08:39:49.305Z,49.10
2018-05-04T08:42:16.225Z,48.90
2018-05-04T08:44:42.435Z,48.80
2018-05-04T08:47:08.623Z,48.80
2018-05-04T08:49:34.823Z,48.30
2018-05-04T08:52:01.736Z,47.90
2018-05-04T08:54:28.048Z,47.80
2018-05-04T08:56:54.119Z,47.70
2018-05-04T08:59:20.347Z,47.60
2018-05-04T09:01:47.296Z,47.50
2018-05-04T09:04:13.489Z,47.40
2018-05-04T09:06:39.678Z,47.30
2018-05-04T09:09:05.879Z,47.10
2018-05-04T09:11:32.790Z,47.00
2018-05-04T09:13:58.985Z,46.40
2018-05-04T09:16:32.148Z,46.70
2018-05-04T09:18:59.071Z,45.30
2018-05-04T09:21:25.251Z,45.30
2018-05-04T09:23:51.489Z,45.20
2018-05-04T09:26:17.687Z,45.40
2018-05-04T09:28:43.864Z,44.10
2018-05-04T09:31:10.066Z,44.80
2018-05-04T09:33:36.284Z,44.00
2018-05-04T09:36:02.515Z,44.50
2018-05-04T09:38:28.695Z,44.30
2018-05-04T09:40:54.953Z,43.70
2018-05-04T09:43:21.218Z,43.20
2018-05-04T09:45:47.397Z,43.50
2018-05-04T09:48:14.315Z,43.00
2018-05-04T09:50:40.495Z,42.80
2018-05-04T09:53:06.689Z,42.80
2018-05-04T09:55:32.901Z,43.50
2018-05-04T09:57:59.065Z,44.30
2018-05-04T10:00:25.276Z,44.00
2018-05-04T10:02:51.479Z,43.20
2018-05-04T10:05:17.688Z,43.80
2018-05-04T10:07:43.876Z,42.80
2018-05-04T10:10:10.084Z,42.30
2018-05-04T10:12:37.015Z,41.30
2018-05-04T10:15:03.207Z,41.30
2018-05-04T10:17:29.470Z,40.20
2018-05-04T10:19:55.600Z,39.40
2018-05-04T10:22:22.536Z,38.80
2018-05-04T10:24:48.704Z,38.60
2018-05-04T10:27:14.892Z,38.70
2018-05-04T10:29:41.078Z,39.20
2018-05-04T10:32:07.304Z,40.00
2018-05-04T10:34:33.491Z,37.60
2018-05-04T10:37:00.448Z,39.70
2018-05-04T10:39:26.662Z,39.50
2018-05-04T10:41:52.876Z,39.70
2018-05-04T10:44:19.884Z,38.60
2018-05-04T10:46:46.101Z,38.60
2018-05-04T10:49:12.301Z,38.80
2018-05-04T10:51:38.511Z,38.90
2018-05-04T10:54:05.508Z,36.90
2018-05-04T10:56:31.699Z,36.80
2018-05-04T10:58:58.660Z,39.20
2018-05-04T11:01:24.856Z,39.20
2018-05-04T11:03:51.853Z,38.50
2018-05-04T11:06:18.027Z,37.80
2018-05-04T11:08:44.195Z,38.40
2018-05-04T11:11:10.375Z,38.60
2018-05-04T11:13:37.316Z,37.40
2018-05-04T11:16:03.544Z,37.30
2018-05-04T11:18:29.752Z,36.90
2018-05-04T11:20:55.941Z,36.90
2018-05-04T11:23:22.104Z,36.90
2018-05-04T11:25:48.282Z,36.40
2018-05-04T11:28:14.489Z,36.30
2018-05-04T11:30:41.415Z,36.30
2018-05-04T11:33:09.088Z,37.00
2018-05-04T11:35:35.280Z,36.90
2018-05-04T11:38:01.530Z,38.10
2018-05-04T11:40:27.729Z,36.90
2018-05-04T11:42:53.939Z,37.10
2018-05-04T11:45:20.136Z,37.10
2018-05-04T11:47:46.313Z,36.90
2018-05-04T11:50:12.497Z,36.90
2018-05-04T11:52:38.687Z,37.10
2018-05-04T11:55:04.899Z,36.70
2018-05-04T11:57:31.088Z,36.30
2018-05-04T11:59:57.288Z,35.90
2018-05-04T12:02:24.258Z,36.40
2018-05-04T12:04:50.493Z,36.10
2018-05-04T12:07:17.408Z,35.90
2018-05-04T12:09:43.600Z,35.80
2018-05-04T12:12:09.783Z,34.30
2018-05-04T12:14:35.961Z,35.30
2018-05-04T12:17:02.276Z,36.30
2018-05-04T12:19:28.522Z,36.70
2018-05-04T12:21:54.691Z,36.40
2018-05-04T12:24:21.624Z,35.70
2018-05-04T12:26:47.800Z,35.60
2018-05-04T12:29:13.974Z,35.00
2018-05-04T12:31:40.163Z,36.10
2018-05-04T12:34:06.333Z,36.20
2018-05-04T12:36:32.492Z,36.80
2018-05-04T12:38:58.684Z,37.00
2018-05-04T12:41:24.850Z,36.30
2018-05-04T12:43:51.041Z,36.20
2018-05-04T12:46:17.219Z,35.70
2018-05-04T12:48:43.408Z,35.70
2018-05-04T12:51:10.376Z,35.30
2018-05-04T12:53:36.585Z,35.30
2018-05-04T12:56:03.500Z,35.60
2018-05-04T12:58:29.700Z,35.50
2018-05-04T13:00:55.917Z,36.30
2018-05-04T13:03:22.097Z,34.90
2018-05-04T13:05:48.277Z,35.30
2018-05-04T13:08:14.507Z,34.90
2018-05-04T13:10:40.703Z,34.40
2018-05-04T13:13:06.879Z,34.10
2018-05-04T13:15:33.070Z,33.30
2018-05-04T13:17:59.237Z,33.70
2018-05-04T13:20:25.430Z,34.10
2018-05-04T13:22:51.608Z,34.30
2018-05-04T13:25:17.789Z,34.30
2018-05-04T13:27:43.972Z,34.90
2018-05-04T13:30:10.154Z,35.00
2018-05-04T13:32:36.319Z,35.30
2018-05-04T13:35:02.522Z,35.60
2018-05-04T13:37:28.702Z,35.40
2018-05-04T13:39:55.617Z,34.50
2018-05-04T13:42:21.839Z,34.50
2018-05-04T13:44:48.090Z,34.50
2018-05-04T13:47:16.444Z,34.80
2018-05-04T13:49:42.632Z,34.40
2018-05-04T13:52:08.812Z,34.50
2018-05-04T13:54:35.016Z,33.70
2018-05-04T13:57:01.235Z,33.80
2018-05-04T13:59:27.425Z,32.70
2018-05-04T14:01:53.673Z,31.90
2018-05-04T14:04:19.866Z,32.10
2018-05-04T14:06:46.798Z,32.60
2018-05-04T14:09:13.737Z,32.80
2018-05-04T14:11:39.925Z,32.80
2018-05-04T14:14:06.101Z,32.70
2018-05-04T14:16:33.034Z,33.30
2018-05-04T14:18:59.227Z,33.20
2018-05-04T14:21:25.432Z,33.10
2018-05-04T14:23:51.706Z,33.10
2018-05-04T14:26:17.907Z,32.70
2018-05-04T14:28:44.089Z,32.40
2018-05-04T14:31:11.308Z,32.20
2018-05-04T14:33:37.641Z,32.60
2018-05-04T14:36:03.849Z,32.40
2018-05-04T14:38:30.048Z,32.60
2018-05-04T14:40:56.308Z,33.10
2018-05-04T14:43:22.487Z,32.20
2018-05-04T14:45:48.711Z,32.50
2018-05-04T14:48:15.632Z,32.10
2018-05-04T14:50:41.834Z,32.00
2018-05-04T14:53:08.050Z,32.40
2018-05-04T14:55:34.302Z,32.50
2018-05-04T14:58:00.493Z,33.00
2018-05-04T15:00:26.710Z,32.70
2018-05-04T15:02:52.907Z,32.70
2018-05-04T15:05:19.898Z,32.50
2018-05-04T15:07:46.091Z,32.50
2018-05-04T15:10:13.040Z,32.50
2018-05-04T15:12:40.040Z,32.40
2018-05-04T15:15:06.250Z,32.20
2018-05-04T15:17:32.451Z,32.80
2018-05-04T15:19:58.620Z,33.20
2018-05-04T15:22:24.811Z,33.60
2018-05-04T15:24:51.031Z,33.10
2018-05-04T15:27:17.931Z,32.80
2018-05-04T15:29:44.142Z,32.80
2018-05-04T15:32:10.324Z,32.80
2018-05-04T15:34:37.236Z,32.70
2018-05-04T15:37:03.493Z,32.60
2018-05-04T15:39:29.713Z,32.80
2018-05-04T15:41:56.663Z,32.90
2018-05-04T15:44:23.604Z,32.50
2018-05-04T15:46:50.557Z,32.20
2018-05-04T15:49:18.337Z,32.80
2018-05-04T15:51:50.600Z,32.80
2018-05-04T15:54:16.787Z,32.80
2018-05-04T15:56:42.975Z,33.00
2018-05-04T15:59:09.146Z,32.70
2018-05-04T16:01:36.066Z,33.40
2018-05-04T16:04:02.254Z,32.60
2018-05-04T16:06:28.483Z,33.00
2018-05-04T16:08:54.733Z,32.20
2018-05-04T16:11:20.989Z,32.30
2018-05-04T16:13:47.183Z,32.80
2018-05-04T16:16:13.373Z,32.80
2018-05-04T16:18:40.384Z,33.00
2018-05-04T16:21:06.643Z,33.00
2018-05-04T16:23:33.595Z,32.90
2018-05-04T16:26:00.565Z,33.90
2018-05-04T16:28:26.768Z,33.20
2018-05-04T16:30:52.961Z,33.30
2018-05-04T16:33:26.958Z,34.00
2018-05-04T16:35:53.163Z,33.80
2018-05-04T16:38:19.335Z,34.00
2018-05-04T16:40:45.511Z,34.00
2018-05-04T16:43:11.717Z,33.90
2018-05-04T16:45:38.660Z,33.10
2018-05-04T16:48:11.899Z,32.70
2018-05-04T16:50:38.132Z,33.40
2018-05-04T16:53:04.308Z,33.20
2018-05-04T16:55:31.233Z,33.10
2018-05-04T16:57:57.409Z,33.00
2018-05-04T17:00:23.611Z,33.50
2018-05-04T17:02:49.810Z,33.40
2018-05-04T17:05:16.085Z,33.70
2018-05-04T17:07:42.313Z,33.80
2018-05-04T17:10:08.536Z,34.20
2018-05-04T17:12:34.744Z,34.30
2018-05-04T17:15:00.996Z,34.30
2018-05-04T17:17:27.198Z,34.10
2018-05-04T17:19:53.639Z,34.00
2018-05-04T17:22:19.838Z,33.80
2018-05-04T17:24:46.008Z,34.10
2018-05-04T17:27:12.222Z,34.80
2018-05-04T17:29:38.518Z,34.50
2018-05-04T17:32:04.719Z,34.80
2018-05-04T17:34:31.020Z,34.20
2018-05-04T17:36:57.241Z,34.70
2018-05-04T17:39:23.450Z,34.10
2018-05-04T17:41:50.395Z,34.30
2018-05-04T17:44:17.328Z,34.40
2018-05-04T17:46:43.583Z,34.30
2018-05-04T17:49:09.865Z,34.40
2018-05-04T17:51:36.049Z,34.80
2018-05-04T17:54:09.261Z,34.70
2018-05-04T17:56:35.463Z,34.90
2018-05-04T17:59:01.710Z,34.90
2018-05-04T18:01:27.911Z,35.30
2018-05-04T18:03:54.149Z,35.30
2018-05-04T18:06:20.383Z,35.10
2018-05-04T18:08:46.588Z,35.10
2018-05-04T18:11:13.510Z,34.90
2018-05-04T18:13:39.739Z,34.90
2018-05-04T18:16:05.969Z,34.50
2018-05-04T18:18:32.918Z,34.90
2018-05-04T18:20:59.875Z,34.70
2018-05-04T18:23:26.799Z,34.50
2018-05-04T18:25:52.989Z,34.50
2018-05-04T18:28:19.182Z,34.70
2018-05-04T18:30:46.127Z,34.50
2018-05-04T18:33:12.304Z,34.50
2018-05-04T18:35:38.484Z,34.50
2018-05-04T18:38:04.674Z,34.50
2018-05-04T18:40:31.612Z,35.30
2018-05-04T18:42:57.801Z,35.30
2018-05-04T18:45:24.010Z,35.90
2018-05-04T18:47:50.190Z,35.90
2018-05-04T18:50:16.372Z,35.80
2018-05-04T18:52:42.583Z,35.90
2018-05-04T18:55:09.510Z,36.60
2018-05-04T18:57:36.444Z,37.00
2018-05-04T19:00:02.711Z,36.90
2018-05-04T19:02:34.931Z,36.80
2018-05-04T19:05:01.124Z,37.30
2018-05-04T19:07:27.325Z,37.40
2018-05-04T19:09:54.280Z,37.90
2018-05-04T19:12:20.473Z,37.80
2018-05-04T19:14:46.663Z,37.80
2018-05-04T19:17:12.845Z,38.70
2018-05-04T19:19:39.787Z,38.60
2018-05-04T19:22:06.719Z,38.60
2018-05-04T19:24:32.913Z,38.50
2018-05-04T19:26:59.166Z,38.70
2018-05-04T19:29:26.219Z,39.10
2018-05-04T19:31:52.484Z,39.00
2018-05-04T19:34:18.691Z,39.10
2018-05-04T19:36:45.648Z,39.60
2018-05-04T19:39:11.847Z,39.50
2018-05-04T19:41:38.787Z,40.50
2018-05-04T19:44:04.964Z,40.30
2018-05-04T19:46:31.162Z,40.00
2018-05-04T19:48:57.329Z,40.00
2018-05-04T19:51:23.495Z,40.00
2018-05-04T19:53:49.696Z,40.30
2018-05-04T19:56:15.890Z,40.30
2018-05-04T19:58:42.102Z,40.30
2018-05-04T20:01:08.293Z,40.40
2018-05-04T20:03:34.540Z,40.80
2018-05-04T20:06:00.732Z,40.60
2018-05-04T20:08:26.943Z,41.10
2018-05-04T20:10:53.124Z,41.00
2018-05-04T20:13:19.313Z,41.00
2018-05-04T20:15:45.521Z,41.40
2018-05-04T20:18:11.695Z,41.30
2018-05-04T20:20:37.856Z,41.40
2018-05-04T20:23:04.040Z,41.30
2018-05-04T20:25:30.969Z,41.70
2018-05-04T20:27:57.178Z,41.70
2018-05-04T20:30:23.405Z,41.90
2018-05-04T20:32:49.616Z,41.80
2018-05-04T20:35:15.795Z,41.80
2018-05-04T20:37:42.090Z,42.10
2018-05-04T20:40:08.311Z,42.10
2018-05-04T20:42:34.523Z,42.20
2018-05-04T20:45:00.722Z,42.00
2018-05-04T20:47:27.672Z,42.60
2018-05-04T20:49:54.625Z,42.70
2018-05-04T20:52:21.531Z,42.90
2018-05-04T20:54:47.721Z,42.80
2018-05-04T20:57:13.936Z,43.50
2018-05-04T20:59:40.130Z,42.60
2018-05-04T21:02:06.339Z,42.90
2018-05-04T21:04:32.662Z,42.90
2018-05-04T21:06:58.834Z,43.00
2018-05-04T21:09:25.813Z,43.10
2018-05-04T21:11:51.996Z,43.10
2018-05-04T21:14:18.917Z,43.30
2018-05-04T21:16:45.108Z,43.20
2018-05-04T21:19:11.340Z,43.30
2018-05-04T21:21:37.523Z,43.20
2018-05-04T21:24:04.436Z,43.50
2018-05-04T21:26:30.695Z,43.40
2018-05-04T21:28:57.629Z,44.30
2018-05-04T21:31:23.812Z,43.50
2018-05-04T21:33:49.991Z,43.60
2018-05-04T21:36:16.895Z,44.30
2018-05-04T21:38:43.071Z,43.60
2018-05-04T21:41:10.004Z,43.60
2018-05-04T21:43:36.236Z,43.60
2018-05-04T21:46:02.401Z,43.80
2018-05-04T21:48:28.581Z,43.80
2018-05-04T21:50:54.805Z,43.90
2018-05-04T21:53:22.465Z,44.30
2018-05-04T21:55:48.705Z,44.30
2018-05-04T21:58:15.636Z,44.30
2018-05-04T22:00:41.820Z,44.20
2018-05-04T22:03:08.039Z,44.50
2018-05-04T22:05:34.247Z,44.40
2018-05-04T22:08:00.448Z,44.30
2018-05-04T22:10:26.718Z,44.70
2018-05-04T22:12:52.929Z,44.80
2018-05-04T22:15:19.857Z,44.70
2018-05-04T22:17:46.048Z,44.70
2018-05-04T22:20:12.230Z,44.80
2018-05-04T22:22:39.158Z,45.10
2018-05-04T22:25:06.124Z,45.00
2018-05-04T22:27:33.053Z,44.90
2018-05-04T22:30:00.008Z,45.10
2018-05-04T22:32:26.932Z,45.10
2018-05-04T22:34:53.917Z,45.30
2018-05-04T22:37:20.101Z,45.20
2018-05-04T22:39:46.316Z,45.20
2018-05-04T22:42:12.514Z,45.40
2018-05-04T22:44:38.696Z,45.40
2018-05-04T22:47:05.605Z,45.60
2018-05-04T22:49:31.792Z,45.60
2018-05-04T22:51:57.960Z,45.50
2018-05-04T22:54:31.112Z,45.70
2018-05-04T22:56:57.309Z,45.60
2018-05-04T22:59:23.475Z,45.80
2018-05-04T23:01:49.671Z,46.00
2018-05-04T23:06:50.521Z,46.30
2018-05-04T23:09:17.453Z,46.30
2018-05-04T23:11:43.613Z,46.20
2018-05-04T23:14:09.774Z,46.40
2018-05-04T23:16:35.971Z,46.40
2018-05-04T23:19:02.174Z,46.70
2018-05-04T23:21:29.092Z,46.80
2018-05-04T23:23:55.275Z,46.80
2018-05-04T23:26:21.449Z,46.70
2018-05-04T23:28:47.632Z,46.80
2018-05-04T23:31:13.836Z,46.80
2018-05-04T23:33:40.752Z,47.10
2018-05-04T23:36:06.945Z,47.20
2018-05-04T23:38:55.047Z,47.80
2018-05-04T23:41:21.976Z,47.40
2018-05-04T23:43:48.883Z,47.40
2018-05-04T23:46:15.072Z,47.40
2018-05-04T23:48:41.280Z,47.50
2018-05-04T23:51:07.580Z,47.70
2018-05-04T23:53:33.749Z,47.90
2018-05-04T23:55:59.947Z,48.00
2018-05-04T23:58:26.875Z,48.10
